Meteo Giornale » Osservazioni meteo Algeria » Tlemcen Zenata
ore: 18:00 - Osservazioni Meteo Tlemcen Zenata
Lat. 35° 1' N Lon. 1° 28' W Alt. 247 metri s.l.m.
28 °C
Nuvoloso
Temp. 24 Ore
22 °C
33 °C
Nord/NOvest
22.2 Km/h
Dew point 22 °C
Umidità 69 %
Visibilità 10 Km
Il sole sorge alle ore 06:37
Il sole tramonta alle ore 19:34
| Data e Ora | Cielo e Fenomeni | T °C | DP °C | Um. % | Pres. hPa | Vis. km | Vento km/h | |
|---|---|---|---|---|---|---|---|---|
| Oggi h: 18:00 | Nuvoloso | 28 | 22 | 69 | 1016 | 10 | N/NO 22.2 | |
| Oggi h: 17:00 | Nuvoloso | 29 | 22 | 66 | 1015 | 10 | N/NO 20.3 | |
| Oggi h: 15:00 | Poco Nuvoloso | 32 | 21 | 52 | 1016 | 10 | N 24 | |
| Oggi h: 14:00 | Poco Nuvoloso | 33 | 21 | 49 | 1016 | 10 | N 16.7 | |
| Oggi h: 13:00 | Poco Nuvoloso | 32 | 20 | 49 | 1017 | 10 | N/NO 7.4 | |
| Oggi h: 12:00 | Poco Nuvoloso | 30 | 20 | 55 | 1018 | 10 | N 7.4 | |
| Oggi h: 11:00 | Poco Nuvoloso | 28 | 21 | 65 | 1018 | 10 | N 5.5 | |
| Oggi h: 10:00 | Nuvoloso | 26 | 20 | 69 | 1018 | 9 | N/NE 9.3 | |
| Oggi h: 09:00 | Nuvoloso | 25 | 21 | 78 | 1018 | 9 | N 5.5 | |
| Oggi h: 08:00 | Nuvoloso | 24 | 21 | 83 | 1018 | 8 | N 1.8 | |
| Oggi h: 07:00 | Nuvoloso | 23 | 21 | 88 | 1017 | 8 | SO 7.4 | |
| Oggi h: 06:00 | Nuvoloso | 22 | 21 | 94 | 1017 | 8 | N 3.7 | |
| Oggi h: 05:00 | Poco Nuvoloso | 22 | 21 | 94 | 1017 | 10 | N 5.5 | |
| Oggi h: 04:00 | Poco Nuvoloso | 22 | 21 | 94 | 1017 | 10 | N 5.5 | |
| Oggi h: 03:00 | Nuvoloso | 23 | 21 | 88 | 1017 | 10 | N 5.5 | |
| Oggi h: 02:00 | Nuvoloso | 23 | 21 | 88 | 1017 | 10 | NE 11.1 | |
| Oggi h: 01:00 | Nuvoloso | 24 | 21 | 83 | 1018 | 10 | N 3.7 | |
| Oggi h: 00:00 | Poco Nuvoloso | 24 | 21 | 83 | 1019 | 10 | O/NO 9.3 | |
| Ieri h: 23:00 | Poco Nuvoloso | 24 | 21 | 83 | 1018 | 10 | N 7.4 | |
| Ieri h: 22:00 | Poco Nuvoloso | 24 | 21 | 83 | 1018 | 10 | N/NO 11.1 | |
| Ieri h: 21:00 | Poco Nuvoloso | 24 | 21 | 83 | 1017 | 10 | N/NO 11.1 | |
| Ieri h: 20:00 | Poco Nuvoloso | 25 | 21 | 78 | 1017 | 10 | N/NO 13 | |
| Ieri h: 19:00 | Poco Nuvoloso | 26 | 21 | 73 | 1016 | 10 | N/NO 18.5 | |



